Latest Weather Observations for Campbelltown

IDN60801

Issued at 7:03 pm EST Tuesday 22 August 2017 (issued every 30 minutes, with the page automatically refreshed every 10 minutes)

About weather observations | Map of weather stations | Latest weather observations for NSW | Other Formats
Station Details ID: 068257 Name: CAMPBELLTOWN (MOUNT ANNAN) Lat: -34.06 Lon: 150.77 Height: 112.0 m
Data from the previous 72 hours. | See also: Recent months at Campbelltown
Date/Time
EST
Temp
°C
App
Temp
°C
Dew
Point
°C
Rel
Hum
%
Delta-T
°C
Wind Press
QNH
hPa
Press
MSL
hPa
Rain since
9am
mm
Dir  Spd
km/h
Gust
km/h
Spd
kts
Gust
kts
22/07:00pm 10.0 8.3 4.2 67 2.6 SE 2 9 1 5 - - 0.0
22/06:30pm 12.1 10.0 3.9 57 3.7 ESE 4 7 2 4 - - 0.0
22/06:00pm 13.2 10.5 3.6 52 4.3 ESE 7 11 4 6 - - 0.0
22/05:30pm 14.4 11.3 3.5 48 5.0 E 9 19 5 10 - - 0.0
22/05:00pm 15.6 12.0 2.7 42 5.8 E 11 19 6 10 - - 0.0
22/04:30pm 16.9 13.1 1.8 36 6.8 E 11 20 6 11 - - 0.0
22/04:00pm 18.0 14.2 1.5 33 7.4 E 11 19 6 10 - - 0.0
22/03:30pm 18.8 14.9 0.9 30 8.0 E 11 19 6 10 - - 0.0
22/03:00pm 19.8 16.1 -2.5 22 9.4 NNE 7 13 4 7 - - 0.0
22/02:30pm 19.8 15.8 -2.5 22 9.4 NE 9 17 5 9 - - 0.0
22/02:00pm 19.5 16.0 -2.8 22 9.3 NNW 6 9 3 5 - - 0.0
22/01:30pm 19.2 15.3 -1.3 25 8.8 NW 9 15 5 8 - - 0.0
22/01:00pm 18.8 14.8 -2.2 24 8.8 NNW 9 13 5 7 - - 0.0
22/12:30pm 19.0 15.7 -0.9 26 8.6 ESE 6 9 3 5 - - 0.0
22/12:00pm 18.3 14.9 -0.5 28 8.1 NNW 7 11 4 6 - - 0.0
22/11:30am 17.6 14.0 -2.1 26 8.2 WSW 7 17 4 9 - - 0.0
22/11:00am 16.0 12.2 -0.7 32 7.1 SW 9 13 5 7 - - 0.0
22/10:30am 16.0 12.7 2.4 40 6.1 S 9 13 5 7 - - 0.0
22/10:00am 14.3 11.6 3.7 49 4.8 SW 7 9 4 5 - - 0.0
22/09:30am 13.2 10.6 4.4 55 4.0 SSW 7 11 4 6 - - 0.0
22/09:00am 11.7 9.1 4.4 61 3.3 WSW 7 9 4 5 - - 0.2
22/08:30am 10.4 8.0 4.3 66 2.7 SW 6 9 3 5 - - 0.2
22/08:00am 9.2 6.7 4.8 74 2.0 S 7 13 4 7 - - 0.2
22/07:30am 7.2 4.4 5.3 88 0.8 S 9 17 5 9 - - 0.2
22/07:00am 3.0 0.6 2.0 93 0.4 S 4 6 2 3 - - 0.2
22/06:30am 3.8 2.3 2.8 93 0.4 CALM 0 0 0 0 - - 0.2
22/06:00am 4.4 2.9 2.8 89 0.7 CALM 0 0 0 0 - - 0.2
22/05:30am 5.4 3.5 3.1 85 1.0 SSW 2 6 1 3 - - 0.2
22/05:00am 6.7 4.1 4.0 83 1.2 S 7 13 4 7 - - 0.2
22/04:30am 7.2 4.6 4.0 80 1.4 S 7 13 4 7 - - 0.2
22/04:00am 7.7 5.2 4.7 81 1.3 SSW 7 11 4 6 - - 0.2
22/03:30am 7.0 4.7 4.7 85 1.0 S 6 13 3 7 - - 0.2
22/03:00am 7.2 4.8 4.3 82 1.3 S 6 7 3 4 - - 0.2
22/02:30am 8.1 5.8 5.0 81 1.4 SSW 6 9 3 5 - - 0.2
22/02:00am 8.0 6.2 5.5 84 1.1 SSW 4 9 2 5 - - 0.2
22/01:30am 7.5 5.7 5.3 86 1.0 S 4 7 2 4 - - 0.2
22/01:00am 8.2 6.8 5.5 83 1.2 S 2 6 1 3 - - 0.2
22/12:30am 8.5 7.5 5.8 83 1.2 CALM 0 2 0 1 - - 0.2
22/12:00am 9.0 6.9 5.7 80 1.5 SSW 6 9 3 5 - - 0.2
 
Date/Time
EST
Temp
°C
App
Temp
°C
Dew
Point
°C
Rel
Hum
%
Delta-T
°C
Wind Press
QNH
hPa
Press
MSL
hPa
Rain since
9am
mm
Dir  Spd
km/h
Gust
km/h
Spd
kts
Gust
kts
21/11:30pm 9.1 7.0 5.7 79 1.6 SSW 6 9 3 5 - - 0.2
21/11:00pm 9.4 7.3 5.9 79 1.6 SSW 6 9 3 5 - - 0.2
21/10:30pm 9.8 7.7 5.8 76 1.8 SSE 6 9 3 5 - - 0.2
21/10:00pm 9.9 7.7 6.4 79 1.6 SSW 7 9 4 5 - - 0.2
21/09:30pm 10.4 8.1 5.6 72 2.2 SSW 7 9 4 5 - - 0.2
21/09:00pm 11.0 8.8 6.0 71 2.3 S 7 13 4 7 - - 0.2
21/08:30pm 11.4 8.8 6.1 70 2.5 S 9 15 5 8 - - 0.2
21/08:00pm 11.7 9.3 7.0 73 2.3 SSW 9 13 5 7 - - 0.2
21/07:30pm 10.4 9.6 6.5 77 1.8 CALM 0 0 0 0 - - 0.2
21/07:00pm 10.6 9.8 6.6 76 1.9 CALM 0 0 0 0 - - 0.2
21/06:30pm 10.8 9.9 6.2 73 2.2 CALM 0 0 0 0 - - 0.2
21/06:00pm 11.7 10.9 6.4 70 2.5 CALM 0 0 0 0 - - 0.2
21/05:30pm 12.6 11.7 6.0 64 3.1 CALM 0 0 0 0 - - 0.2
21/05:00pm 13.3 11.8 5.2 58 3.8 N 2 6 1 3 - - 0.2
21/04:30pm 13.9 11.6 5.5 57 4.0 N 7 9 4 5 - - 0.2
21/04:00pm 14.1 11.7 5.2 55 4.2 N 7 9 4 5 - - 0.2
21/03:30pm 14.4 12.0 4.1 50 4.8 NNW 6 9 3 5 - - 0.2
21/03:00pm 14.4 12.2 5.2 54 4.3 N 6 9 3 5 - - 0.2
21/02:30pm 13.8 10.7 5.4 57 4.0 NNW 11 13 6 7 - - 0.2
21/02:00pm 13.6 10.8 5.0 56 4.0 NNE 9 13 5 7 - - 0.2
21/01:30pm 13.6 10.4 5.0 56 4.0 NNE 11 19 6 10 - - 0.2
21/01:00pm 14.0 11.3 5.6 57 4.0 NNE 9 13 5 7 - - 0.2
21/12:30pm 13.0 11.0 6.1 63 3.3 ENE 6 9 3 5 - - 0.2
21/12:00pm 12.3 10.9 5.7 64 3.1 NW 2 7 1 4 - - 0.0
21/11:30am 12.3 9.5 5.0 61 3.4 NW 9 13 5 7 - - 0.0
21/11:00am 11.9 9.7 5.5 65 3.0 NNW 6 9 3 5 - - 0.0
21/10:30am 11.6 9.1 5.0 64 3.0 NNW 7 9 4 5 - - 0.0
21/10:00am 11.4 9.7 5.9 69 2.6 N 4 7 2 4 - - 0.0
21/09:30am 11.0 9.6 5.7 70 2.5 SSW 2 7 1 4 - - 0.0
21/09:00am 10.9 8.7 6.1 72 2.2 SW 7 9 4 5 - - 0.0
21/08:30am 10.6 9.1 6.6 76 1.9 S 4 7 2 4 - - 0.0
21/08:00am 8.0 6.5 6.6 91 0.6 S 4 9 2 5 - - 0.0
21/07:30am 5.1 3.9 4.4 95 0.3 CALM 0 0 0 0 - - 0.0
21/07:00am 4.8 3.5 4.2 96 0.3 CALM 0 0 0 0 - - 0.0
21/06:30am 4.7 3.4 4.1 96 0.3 CALM 0 0 0 0 - - 0.0
21/06:00am 4.9 3.3 4.3 96 0.3 S 2 6 1 3 - - 0.0
21/05:30am 5.0 3.8 4.6 97 0.2 CALM 0 0 0 0 - - 0.0
21/05:00am 4.9 3.7 4.5 97 0.2 CALM 0 0 0 0 - - 0.0
21/04:30am 5.2 4.1 4.9 98 0.1 CALM 0 6 0 3 - - 0.0
21/04:00am 4.5 2.1 4.2 98 0.1 S 6 6 3 3 - - 0.0
21/03:30am 3.6 2.1 3.2 97 0.2 CALM 0 0 0 0 - - 0.0
21/03:00am 3.5 2.0 3.1 97 0.2 CALM 0 0 0 0 - - 0.0
21/02:30am 3.6 2.1 3.2 97 0.2 CALM 0 0 0 0 - - 0.0
21/02:00am 3.4 1.9 2.8 96 0.2 CALM 0 0 0 0 - - 0.0
21/01:30am 3.5 2.0 2.8 95 0.3 CALM 0 0 0 0 - - 0.0
21/01:00am 3.7 2.2 2.8 94 0.4 CALM 0 0 0 0 - - 0.0
21/12:30am 4.1 2.6 3.2 94 0.4 CALM 0 0 0 0 - - 0.0
21/12:00am 4.2 2.6 2.7 90 0.6 CALM 0 0 0 0 - - 0.0
 
Date/Time
EST
Temp
°C
App
Temp
°C
Dew
Point
°C
Rel
Hum
%
Delta-T
°C
Wind Press
QNH
hPa
Press
MSL
hPa
Rain since
9am
mm
Dir  Spd
km/h
Gust
km/h
Spd
kts
Gust
kts
20/11:30pm 5.2 3.8 3.7 90 0.6 CALM 0 0 0 0 - - 0.0
20/11:00pm 6.2 3.7 4.8 91 0.6 SSW 7 11 4 6 - - 0.0
20/10:30pm 5.3 3.7 4.4 94 0.4 SSW 2 9 1 5 - - 0.0
20/10:00pm 4.6 3.2 3.6 93 0.4 CALM 0 0 0 0 - - 0.0
20/09:30pm 4.7 2.5 3.2 90 0.6 SSW 4 7 2 4 - - 0.0
20/09:00pm 5.4 4.1 3.9 90 0.6 CALM 0 0 0 0 - - 0.0
20/08:30pm 5.6 4.2 3.8 88 0.8 CALM 0 0 0 0 - - 0.0
20/08:00pm 6.1 4.8 3.9 86 0.9 CALM 0 0 0 0 - - 0.0
20/07:30pm 6.7 4.2 3.7 81 1.3 S 6 7 3 4 - - 0.0
20/07:00pm 7.3 5.8 3.2 75 1.7 CALM 0 0 0 0 - - 0.0
20/06:30pm 7.9 6.4 2.8 70 2.2 CALM 0 0 0 0 - - 0.0
20/06:00pm 9.9 7.7 3.2 63 2.9 SSE 4 6 2 3 - - 0.0
20/05:30pm 11.2 8.9 2.5 55 3.8 SE 4 9 2 5 - - 0.0
20/05:00pm 12.9 10.0 2.5 49 4.6 SSE 7 15 4 8 - - 0.0
20/04:30pm 13.9 10.3 2.8 47 5.0 SE 11 17 6 9 - - 0.0
20/04:00pm 14.6 10.6 2.8 45 5.3 ESE 13 20 7 11 - - 0.0
20/03:30pm 14.6 10.6 2.8 45 5.3 ESE 13 20 7 11 - - 0.0
20/03:00pm 16.7 13.2 3.4 41 6.2 E 11 20 6 11 - - 0.0
20/02:30pm 15.0 11.9 1.2 39 6.0 SSE 7 17 4 9 - - 0.0
20/02:00pm 15.9 12.5 2.0 39 6.2 S 9 17 5 9 - - 0.0
20/01:30pm 16.8 13.4 1.7 36 6.8 S 9 17 5 9 - - 0.0
20/01:00pm 15.4 11.6 1.5 39 6.1 SSW 11 22 6 12 - - 0.0
20/12:30pm 15.4 11.1 1.2 38 6.2 SSW 13 20 7 11 - - 0.0
20/12:00pm 16.3 12.9 1.6 37 6.5 SE 9 17 5 9 - - 0.0
20/11:30am 15.3 11.8 1.4 39 6.1 SSE 9 20 5 11 - - 0.0
20/11:00am 15.0 10.9 -0.3 35 6.5 S 11 17 6 9 - - 0.0
20/10:30am 13.7 9.7 -2.3 33 6.4 SW 9 17 5 9 - - 0.0
20/10:00am 12.8 8.8 -2.6 34 6.0 SSW 9 15 5 8 - - 0.0
20/09:30am 12.1 8.2 -1.4 39 5.4 SSW 9 17 5 9 - - 0.0
20/09:00am 10.5 6.0 -3.6 37 5.3 SW 11 19 6 10 - - 0.0
20/08:30am 9.0 4.1 -3.5 41 4.6 WSW 13 20 7 11 - - 0.0
20/08:00am 7.7 3.6 -3.2 46 4.0 WSW 9 17 5 9 - - 0.0
20/07:30am 5.9 2.1 -3.4 51 3.3 SW 7 11 4 6 - - 0.0
20/07:00am 4.7 0.9 -3.6 55 2.9 WSW 7 15 4 8 - - 0.0
20/06:30am 3.7 0.1 -3.6 59 2.5 SW 6 9 3 5 - - 0.0
20/06:00am 3.5 -0.1 -3.3 61 2.3 WNW 6 9 3 5 - - 0.0
20/05:30am 4.5 0.8 -4.2 53 3.0 WSW 6 11 3 6 - - 0.0
20/05:00am 5.0 0.8 -3.8 53 3.1 SW 9 15 5 8 - - 0.0
20/04:30am 4.1 0.5 -3.9 56 2.7 SW 6 9 3 5 - - 0.0
20/04:00am 3.9 0.6 -4.1 56 2.7 SW 4 9 2 5 - - 0.0
20/03:30am 5.2 1.3 -4.4 50 3.3 SW 7 11 4 6 - - 0.0
20/03:00am 5.4 1.1 -4.4 49 3.4 SW 9 15 5 8 - - 0.0
20/02:30am 5.4 1.1 -4.7 48 3.4 SW 9 15 5 8 - - 0.0
20/02:00am 5.3 1.1 -4.3 50 3.3 SW 9 13 5 7 - - 0.0
20/01:30am 5.6 1.7 -4.5 48 3.5 SW 7 13 4 7 - - 0.0
20/01:00am 6.0 1.7 -4.4 47 3.6 SW 9 13 5 7 - - 0.0
20/12:30am 6.3 1.7 -4.2 47 3.7 SSW 11 17 6 9 - - 0.0
20/12:00am 6.0 1.9 -3.4 51 3.3 SSW 9 15 5 8 - - 0.0
 
Date/Time
EST
Temp
°C
App
Temp
°C
Dew
Point
°C
Rel
Hum
%
Delta-T
°C
Wind Press
QNH
hPa
Press
MSL
hPa
Rain since
9am
mm
Dir  Spd
km/h
Gust
km/h
Spd
kts
Gust
kts
19/11:30pm 5.1 1.8 -0.1 69 2.0 SW 7 9 4 5 - - 0.0
19/11:00pm 5.8 2.7 0.4 68 2.1 SW 6 9 3 5 - - 0.0
19/10:30pm 7.1 4.0 1.6 68 2.2 SSW 7 13 4 7 - - 0.0
19/10:00pm 7.2 3.8 1.7 68 2.2 S 9 13 5 7 - - 0.0
19/09:30pm 8.0 4.6 2.0 66 2.5 SSW 9 19 5 10 - - 0.0
19/09:00pm 8.4 5.0 1.8 63 2.7 SSW 9 15 5 8 - - 0.0
19/08:30pm 8.5 5.1 1.9 63 2.7 SSW 9 17 5 9 - - 0.0
19/08:00pm 8.1 4.6 1.5 63 2.7 S 9 15 5 8 - - 0.0
19/07:30pm 8.1 4.9 0.8 60 2.9 S 7 11 4 6 - - 0.0

Other Formats:

Comma delimited format used in spreadsheet applications
http://www.bom.gov.au/fwo/IDN60801/IDN60801.94757.axf

JavaScript Object Notation format (JSON) in row-major order
http://www.bom.gov.au/fwo/IDN60801/IDN60801.94757.json